Time,TemperatureF,DewpointF,PressureIn,WindDirection,WindDirectionDegrees,WindSpeedMPH,WindSpeedGustMPH,Humidity,HourlyPrecipIn,Conditions,Clouds,dailyrainin,SoftwareType,DateUTC
2013-09-13 00:03:00,56.0,43.0,-100.00,North,10,8.0,16.0,62,0.00,,,0.00,,2013-09-13 05:03:00,
2013-09-13 00:13:00,56.0,43.0,-100.00,North,10,8.0,16.0,62,0.00,,,0.00,,2013-09-13 05:13:00,
2013-09-13 00:22:00,56.0,43.0,-100.00,North,10,8.0,16.0,62,0.00,,,0.00,,2013-09-13 05:22:00,
2013-09-13 00:53:00,51.0,43.0,-100.00,North,8,5.0,12.0,74,0.00,,,0.00,,2013-09-13 05:53:00,
2013-09-13 01:02:00,51.0,43.0,-100.00,North,8,5.0,12.0,74,0.00,,,0.00,,2013-09-13 06:02:00,
2013-09-13 01:12:00,51.0,43.0,-100.00,North,8,5.0,12.0,74,0.00,,,0.00,,2013-09-13 06:12:00,
2013-09-13 01:22:00,51.0,43.0,-100.00,North,8,5.0,12.0,74,0.00,,,0.00,,2013-09-13 06:22:00,
2013-09-13 01:52:00,49.0,44.0,-100.00,NNE,20,4.0,9.0,84,0.00,,,0.00,,2013-09-13 06:52:00,
2013-09-13 02:02:00,49.0,44.0,-100.00,NNE,20,4.0,9.0,84,0.00,,,0.00,,2013-09-13 07:02:00,
2013-09-13 02:11:00,49.0,44.0,-100.00,NNE,20,4.0,9.0,84,0.00,,,0.00,,2013-09-13 07:11:00,
2013-09-13 02:22:00,49.0,44.0,-100.00,NNE,20,4.0,9.0,84,0.00,,,0.00,,2013-09-13 07:22:00,
2013-09-13 02:52:00,49.0,45.0,-100.00,North,2,5.0,9.0,85,0.00,,,0.00,,2013-09-13 07:52:00,
2013-09-13 03:02:00,49.0,45.0,-100.00,North,2,5.0,9.0,85,0.00,,,0.00,,2013-09-13 08:02:00,
2013-09-13 03:11:00,49.0,45.0,-100.00,North,2,5.0,9.0,85,0.00,,,0.00,,2013-09-13 08:11:00,
2013-09-13 03:22:00,49.0,45.0,-100.00,North,2,5.0,9.0,85,0.00,,,0.00,,2013-09-13 08:22:00,
2013-09-13 03:52:00,47.0,43.0,-100.00,North,6,5.0,9.0,87,0.00,,,0.00,,2013-09-13 08:52:00,
2013-09-13 04:02:00,47.0,43.0,-100.00,North,6,5.0,9.0,87,0.00,,,0.00,,2013-09-13 09:02:00,
2013-09-13 04:12:00,47.0,43.0,-100.00,North,6,5.0,9.0,87,0.00,,,0.00,,2013-09-13 09:12:00,
2013-09-13 04:21:00,47.0,43.0,-100.00,North,6,5.0,9.0,87,0.00,,,0.00,,2013-09-13 09:21:00,
2013-09-13 04:54:00,45.0,41.0,-100.00,North,11,5.0,10.0,87,0.00,,,0.00,,2013-09-13 09:54:00,
2013-09-13 05:03:00,45.0,41.0,-100.00,North,11,5.0,10.0,87,0.00,,,0.00,,2013-09-13 10:03:00,
2013-09-13 05:13:00,45.0,41.0,-100.00,North,11,5.0,10.0,87,0.00,,,0.00,,2013-09-13 10:13:00,
2013-09-13 05:23:00,45.0,41.0,-100.00,North,11,5.0,10.0,87,0.00,,,0.00,,2013-09-13 10:23:00,
2013-09-13 05:53:00,44.0,41.0,-100.00,NE,42,3.0,8.0,90,0.00,,,-99.99,,2013-09-13 10:53:00,
2013-09-13 06:03:00,44.0,41.0,-100.00,NE,42,3.0,8.0,90,0.00,,,-99.99,,2013-09-13 11:03:00,
2013-09-13 06:12:00,44.0,41.0,-100.00,NE,42,3.0,8.0,90,0.00,,,-99.99,,2013-09-13 11:12:00,
2013-09-13 06:22:00,44.0,41.0,-100.00,NE,42,3.0,8.0,90,0.00,,,-99.99,,2013-09-13 11:22:00,
2013-09-13 06:52:00,43.0,41.0,-100.00,North,7,5.0,8.0,91,0.00,,,0.00,,2013-09-13 11:52:00,
2013-09-13 07:02:00,43.0,41.0,-100.00,North,7,5.0,8.0,91,0.00,,,0.00,,2013-09-13 12:02:00,
2013-09-13 07:12:00,43.0,41.0,-100.00,North,7,5.0,8.0,91,0.00,,,0.00,,2013-09-13 12:12:00,
2013-09-13 07:21:00,43.0,41.0,-100.00,North,7,5.0,8.0,91,0.00,,,0.00,,2013-09-13 12:21:00,
2013-09-13 07:52:00,45.0,43.0,-100.00,North,4,4.0,11.0,92,0.00,,,0.00,,2013-09-13 12:52:00,
2013-09-13 08:02:00,45.0,43.0,-100.00,North,4,4.0,11.0,92,0.00,,,0.00,,2013-09-13 13:02:00,
2013-09-13 08:11:00,45.0,43.0,-100.00,North,4,4.0,11.0,92,0.00,,,0.00,,2013-09-13 13:11:00,
2013-09-13 08:21:00,45.0,43.0,-100.00,North,4,4.0,11.0,92,0.00,,,0.00,,2013-09-13 13:21:00,
2013-09-13 08:52:00,49.0,44.0,-100.00,North,1,6.0,13.0,84,0.00,,,0.00,,2013-09-13 13:52:00,
2013-09-13 09:02:00,49.0,44.0,-100.00,North,1,6.0,13.0,84,0.00,,,0.00,,2013-09-13 14:02:00,
2013-09-13 09:11:00,49.0,44.0,-100.00,North,1,6.0,13.0,84,0.00,,,0.00,,2013-09-13 14:11:00,
2013-09-13 09:22:00,49.0,44.0,-100.00,North,1,6.0,13.0,84,0.00,,,0.00,,2013-09-13 14:22:00,
2013-09-13 09:52:00,53.0,43.0,-100.00,NNE,15,9.0,17.0,69,0.00,,,0.00,,2013-09-13 14:52:00,
2013-09-13 10:02:00,53.0,43.0,-100.00,NNE,15,9.0,17.0,69,0.00,,,0.00,,2013-09-13 15:02:00,
2013-09-13 10:11:00,53.0,43.0,-100.00,NNE,15,9.0,17.0,69,0.00,,,0.00,,2013-09-13 15:11:00,
2013-09-13 10:22:00,53.0,43.0,-100.00,NNE,15,9.0,17.0,69,0.00,,,0.00,,2013-09-13 15:22:00,
2013-09-13 10:53:00,56.0,42.0,-100.00,NNE,27,9.0,23.0,59,0.00,,,0.00,,2013-09-13 15:53:00,
2013-09-13 11:03:00,56.0,42.0,-100.00,NNE,27,9.0,23.0,59,0.00,,,0.00,,2013-09-13 16:03:00,
2013-09-13 11:12:00,56.0,42.0,-100.00,NNE,27,9.0,23.0,59,0.00,,,0.00,,2013-09-13 16:12:00,
2013-09-13 11:24:00,56.0,42.0,-100.00,NNE,27,9.0,23.0,59,0.00,,,0.00,,2013-09-13 16:24:00,
2013-09-13 11:54:00,57.0,41.0,-100.00,North,1,9.0,19.0,54,0.00,,,0.00,,2013-09-13 16:54:00,
2013-09-13 12:04:00,57.0,41.0,-100.00,North,1,9.0,19.0,54,0.00,,,0.00,,2013-09-13 17:04:00,
2013-09-13 12:13:00,57.0,41.0,-100.00,North,1,9.0,19.0,54,0.00,,,0.00,,2013-09-13 17:13:00,
2013-09-13 12:24:00,57.0,41.0,-100.00,North,1,9.0,19.0,54,0.00,,,0.00,,2013-09-13 17:24:00,
2013-09-13 12:53:00,59.0,42.0,-100.00,NNE,12,9.0,17.0,54,0.00,,,0.00,,2013-09-13 17:53:00,
2013-09-13 13:02:00,59.0,42.0,-100.00,NNE,12,9.0,17.0,54,0.00,,,0.00,,2013-09-13 18:02:00,
2013-09-13 13:12:00,59.0,42.0,-100.00,NNE,12,9.0,17.0,54,0.00,,,0.00,,2013-09-13 18:12:00,
2013-09-13 13:22:00,59.0,42.0,-100.00,NNE,12,9.0,17.0,54,0.00,,,0.00,,2013-09-13 18:22:00,
2013-09-13 13:52:00,60.0,40.0,-100.00,NNE,13,8.0,23.0,47,0.00,,,0.00,,2013-09-13 18:52:00,
2013-09-13 14:01:00,60.0,40.0,-100.00,NNE,13,8.0,23.0,47,0.00,,,0.00,,2013-09-13 19:01:00,
2013-09-13 14:11:00,60.0,40.0,-100.00,NNE,13,8.0,23.0,47,0.00,,,0.00,,2013-09-13 19:11:00,
2013-09-13 14:22:00,60.0,40.0,-100.00,NNE,13,8.0,23.0,47,0.00,,,0.00,,2013-09-13 19:22:00,
2013-09-13 14:52:00,62.0,38.0,-100.00,North,8,9.0,17.0,41,0.00,,,0.00,,2013-09-13 19:52:00,
2013-09-13 15:02:00,62.0,38.0,-100.00,North,8,9.0,17.0,41,0.00,,,0.00,,2013-09-13 20:02:00,
2013-09-13 15:11:00,62.0,38.0,-100.00,North,8,9.0,17.0,41,0.00,,,0.00,,2013-09-13 20:11:00,
2013-09-13 15:22:00,62.0,38.0,-100.00,North,8,9.0,17.0,41,0.00,,,0.00,,2013-09-13 20:22:00,
2013-09-13 15:52:00,62.0,34.0,-100.00,NNE,19,10.0,17.0,35,0.00,,,0.00,,2013-09-13 20:52:00,
2013-09-13 16:02:00,62.0,34.0,-100.00,NNE,19,10.0,17.0,35,0.00,,,0.00,,2013-09-13 21:02:00,
2013-09-13 16:12:00,62.0,34.0,-100.00,NNE,19,10.0,17.0,35,0.00,,,0.00,,2013-09-13 21:12:00,
2013-09-13 16:22:00,62.0,34.0,-100.00,NNE,19,10.0,17.0,35,0.00,,,0.00,,2013-09-13 21:22:00,
2013-09-13 16:54:00,62.0,38.0,-100.00,NE,41,9.0,18.0,41,0.00,,,0.00,,2013-09-13 21:54:00,
2013-09-13 17:04:00,62.0,38.0,-100.00,NE,41,9.0,18.0,41,0.00,,,0.00,,2013-09-13 22:04:00,
2013-09-13 17:13:00,62.0,38.0,-100.00,NE,41,9.0,18.0,41,0.00,,,0.00,,2013-09-13 22:13:00,
2013-09-13 17:24:00,62.0,38.0,-100.00,NE,41,9.0,18.0,41,0.00,,,0.00,,2013-09-13 22:24:00,
2013-09-13 17:53:00,61.0,40.0,-100.00,NE,50,7.0,18.0,45,0.00,,,-99.99,,2013-09-13 22:53:00,
2013-09-13 18:03:00,61.0,40.0,-100.00,NE,50,7.0,18.0,45,0.00,,,-99.99,,2013-09-13 23:03:00,
2013-09-13 18:12:00,61.0,40.0,-100.00,NE,50,7.0,18.0,45,0.00,,,-99.99,,2013-09-13 23:12:00,
2013-09-13 18:22:00,61.0,40.0,-100.00,NE,50,7.0,18.0,45,0.00,,,-99.99,,2013-09-13 23:22:00,
2013-09-13 18:53:00,59.0,41.0,-100.00,NE,53,6.0,13.0,51,0.00,,,0.00,,2013-09-13 23:53:00,
2013-09-13 19:01:00,59.0,41.0,-100.00,NE,53,6.0,13.0,51,0.00,,,0.00,,2013-09-14 00:01:00,
2013-09-13 19:12:00,59.0,41.0,-100.00,NE,53,6.0,13.0,51,0.00,,,0.00,,2013-09-14 00:12:00,
2013-09-13 19:22:00,59.0,41.0,-100.00,NE,53,6.0,13.0,51,0.00,,,0.00,,2013-09-14 00:22:00,
2013-09-13 19:52:00,53.0,42.0,-100.00,East,93,4.0,7.0,67,0.00,,,0.00,,2013-09-14 00:52:00,
2013-09-13 20:02:00,53.0,42.0,-100.00,East,93,4.0,7.0,67,0.00,,,0.00,,2013-09-14 01:02:00,
2013-09-13 20:11:00,53.0,42.0,-100.00,East,93,4.0,7.0,67,0.00,,,0.00,,2013-09-14 01:11:00,
2013-09-13 20:22:00,53.0,42.0,-100.00,East,93,4.0,7.0,67,0.00,,,0.00,,2013-09-14 01:22:00,
2013-09-13 20:52:00,51.0,40.0,-100.00,East,96,5.0,10.0,67,0.00,,,0.00,,2013-09-14 01:52:00,
2013-09-13 21:02:00,51.0,40.0,-100.00,East,96,5.0,10.0,67,0.00,,,0.00,,2013-09-14 02:02:00,
2013-09-13 21:12:00,51.0,40.0,-100.00,East,96,5.0,10.0,67,0.00,,,0.00,,2013-09-14 02:12:00,
2013-09-13 21:22:00,51.0,40.0,-100.00,East,96,5.0,10.0,67,0.00,,,0.00,,2013-09-14 02:22:00,
2013-09-13 21:52:00,51.0,43.0,-100.00,ESE,111,5.0,10.0,74,0.00,,,0.00,,2013-09-14 02:52:00,
2013-09-13 22:02:00,51.0,43.0,-100.00,ESE,111,5.0,10.0,74,0.00,,,0.00,,2013-09-14 03:02:00,
2013-09-13 22:12:00,51.0,43.0,-100.00,ESE,111,5.0,10.0,74,0.00,,,0.00,,2013-09-14 03:12:00,
2013-09-13 22:22:00,51.0,43.0,-100.00,ESE,111,5.0,10.0,74,0.00,,,0.00,,2013-09-14 03:22:00,
2013-09-13 22:55:00,48.0,43.0,-100.00,SE,135,3.0,7.0,84,0.00,,,0.00,,2013-09-14 03:55:00,
2013-09-13 23:04:00,48.0,43.0,-100.00,SE,135,3.0,7.0,84,0.00,,,0.00,,2013-09-14 04:04:00,
2013-09-13 23:14:00,48.0,43.0,-100.00,SE,135,3.0,7.0,84,0.00,,,0.00,,2013-09-14 04:14:00,
2013-09-13 23:24:00,48.0,43.0,-100.00,SE,135,3.0,7.0,84,0.00,,,0.00,,2013-09-14 04:24:00,
2013-09-13 23:54:00,46.0,44.0,-100.00,ESE,110,3.0,6.0,91,0.00,,,0.00,,2013-09-14 04:54:00,